Mr. Mag — WDE7813 — position and weather

sailwx.info

Track history (hours):
 
Tides and Currents Weather Stations Pressure Air Temp Water Temp Dewpoint Dewpoint Depression Visibility Wind Speed Wind Dir Waves Ship Positions

Mr. Mag

More information available from US FCC via Universal Licensing System and Coast Guard Vessel Documentation Center.

Last reported at 2014-Jul-15 18:07 UTC. Time now 2014-Aug-22 07:54 UTC.
Position N 29°41' W 091°11'.
Warning: this ship's position is 37 days out of date.

Length 44 m; draft 2.5 m.

Type: Passenger vessel. MMSI: 367397990.

Date/timePositionNaut miles runAvg speedWind from/ knotsBaromVisibWave heightAir tempDewpointWater temp
2014-Jul-15 18:07N 29°41' W 091°11'0 0.0
2014-Jul-15 17:34N 29°41' W 091°11'0 0.1
2014-Jul-15 16:33N 29°41' W 091°11'0 0.0
2014-Jul-15 15:33N 29°41' W 091°11'2 1.9
2014-Jul-15 14:34N 29°42' W 091°13'0 0.3
2014-Jul-15 13:33N 29°42' W 091°13'2 1.6
2014-Jul-15 12:33N 29°41' W 091°11'0 0.0
2014-Jul-15 11:33N 29°41' W 091°11'0 0.0
2014-Jul-15 10:33N 29°41' W 091°11'0 0.0
2014-Jul-15 09:33N 29°41' W 091°11'0 0.0
2014-Jul-15 08:33N 29°41' W 091°11'0 0.0
2014-Jul-15 07:33N 29°41' W 091°11'0 0.0
2014-Jul-15 06:33N 29°41' W 091°11'0 0.0
2014-Jul-15 05:33N 29°41' W 091°11'0 0.0
2014-Jul-15 04:33N 29°41' W 091°11'0 0.0
2014-Jul-15 03:33N 29°41' W 091°11'0 0.0
2014-Jul-15 02:33N 29°41' W 091°11'0 0.0
2014-Jul-15 01:33N 29°41' W 091°11'0 0.0
2014-Jul-15 00:33N 29°41' W 091°11'2 2.3
2014-Jul-14 23:33N 29°40' W 091°14'9 9.0
2014-Jul-14 22:33N 29°32' W 091°17'16 0.9
2014-Jul-14 05:23N 29°18' W 091°27'1315.9
2014-Jul-14 04:33N 29°28' W 091°17'1211.9
2014-Jul-14 03:33N 29°39' W 091°14'3 3.2
2014-Jul-14 02:33N 29°41' W 091°11'0 0.0
2014-Jul-14 01:33N 29°41' W 091°11'0 0.1
2014-Jul-14 00:33N 29°41' W 091°11'0 0.0
2014-Jul-13 23:33N 29°41' W 091°11'2 1.9
2014-Jul-13 22:33N 29°41' W 091°13'8 7.7
2014-Jul-13 21:33N 29°33' W 091°14'13 0.4
2014-Jul-12 15:32N 29°22' W 091°23'1212.7
2014-Jul-12 14:34N 29°33' W 091°15'9 8.8
2014-Jul-12 13:33N 29°41' W 091°13'1 1.1
2014-Jul-12 12:34N 29°41' W 091°11'2 1.6
2014-Jul-12 11:33N 29°42' W 091°13'1 1.0
2014-Jul-12 10:33N 29°41' W 091°12'1 0.7
2014-Jul-12 09:34N 29°41' W 091°11'0 0.0
2014-Jul-12 08:34N 29°41' W 091°11'0 0.1
2014-Jul-12 07:33N 29°41' W 091°11'0 0.0
2014-Jul-12 06:33N 29°41' W 091°11'0 0.0
2014-Jul-12 05:33N 29°41' W 091°11'3 3.0
2014-Jul-12 04:34N 29°40' W 091°14'10 9.8
2014-Jul-12 03:34N 29°30' W 091°16'6 0.5
2014-Jul-11 14:33N 29°25' W 091°20'1212.2
2014-Jul-11 13:33N 29°36' W 091°15'6 5.7
2014-Jul-11 12:34N 29°41' W 091°11'0 0.0
2014-Jul-11 11:33N 29°41' W 091°11'0 0.0
2014-Jul-11 10:33N 29°41' W 091°11'0 0.0
2014-Jul-11 09:34N 29°41' W 091°11'0 0.0
2014-Jul-11 08:33N 29°41' W 091°11'0 0.0
2014-Jul-11 07:33N 29°41' W 091°11'0 0.0
2014-Jul-11 06:34N 29°41' W 091°11'0 0.0
2014-Jul-11 05:33N 29°41' W 091°11'0 0.0
2014-Jul-11 04:34N 29°41' W 091°11'6 6.1
2014-Jul-11 03:34N 29°36' W 091°14'16 1.2
2014-Jul-10 13:24N 29°21' W 091°24'1214.1
2014-Jul-10 12:34N 29°32' W 091°17'1010.5
2014-Jul-10 11:34N 29°41' W 091°12'1 0.6
2014-Jul-10 10:33N 29°41' W 091°11'0 0.0
2014-Jul-10 09:33N 29°41' W 091°11'0 0.0
2014-Jul-10 08:34N 29°41' W 091°11'0 0.0
2014-Jul-10 07:33N 29°41' W 091°11'0 0.0
2014-Jul-10 06:34N 29°41' W 091°11'0 0.0
2014-Jul-10 05:34N 29°41' W 091°11'0 0.0
2014-Jul-10 04:34N 29°41' W 091°11'0 0.0
2014-Jul-10 03:34N 29°41' W 091°11'0 0.0
2014-Jul-10 02:33N 29°41' W 091°11'3 2.6
2014-Jul-10 01:33N 29°40' W 091°14'9 9.5
2014-Jul-10 00:33N 29°31' W 091°16'6 0.5
2014-Jul-09 13:09N 29°26' W 091°20'712.1
2014-Jul-09 12:34N 29°32' W 091°17'1010.0
2014-Jul-09 11:33N 29°42' W 091°13'0 0.5
2014-Jul-09 10:33N 29°42' W 091°13'2 1.5
2014-Jul-09 09:33N 29°41' W 091°11'0 0.0
2014-Jul-09 08:33N 29°41' W 091°11'0 0.0
2014-Jul-09 07:33N 29°41' W 091°11'8 7.8
2014-Jul-09 06:34N 29°34' W 091°14'15 0.7
2014-Jul-08 08:12N 29°21' W 091°24'812.6
2014-Jul-08 07:32N 29°27' W 091°18'6 5.7
2014-Jul-08 06:33N 29°33' W 091°16'9 9.1
2014-Jul-08 05:34N 29°41' W 091°13'1 1.2
2014-Jul-08 04:33N 29°41' W 091°11'0 0.0
2014-Jul-08 03:34N 29°41' W 091°11'2 2.3
2014-Jul-08 02:33N 29°40' W 091°14'1110.6
2014-Jul-08 01:33N 29°30' W 091°16'5 0.5
2014-Jul-07 15:33N 29°26' W 091°20'1313.1
2014-Jul-07 14:33N 29°38' W 091°14'4 3.8
2014-Jul-07 13:33N 29°41' W 091°11'0 0.4
2014-Jul-07 12:33N 29°41' W 091°12'8 7.6
2014-Jul-07 11:33N 29°34' W 091°14'6 0.4
2014-Jul-06 20:33N 29°28' W 091°17'1211.6
2014-Jul-06 19:34N 29°40' W 091°14'3 3.0
2014-Jul-06 18:33N 29°41' W 091°11'0 0.0
2014-Jul-06 17:34N 29°41' W 091°11'0 0.0
2014-Jul-06 16:34N 29°41' W 091°11'0 0.0
2014-Jul-06 15:34N 29°41' W 091°11'0 0.0
2014-Jul-06 14:34N 29°41' W 091°11'0 0.0
2014-Jul-06 13:33N 29°41' W 091°11'2 1.6
2014-Jul-06 12:34N 29°42' W 091°13'2 2.3
2014-Jul-06 11:34N 29°40' W 091°14'1110.2
2014-Jul-06 10:30N 29°29' W 091°16'15 1.8
2014-Jul-06 02:19N 29°18' W 091°27'1418.0
2014-Jul-06 01:34N 29°28' W 091°17'1313.1
2014-Jul-06 00:33N 29°41' W 091°13'2 1.5
2014-Jul-05 23:33N 29°41' W 091°11'0 0.0
2014-Jul-05 22:33N 29°41' W 091°11'0 0.0
2014-Jul-05 21:33N 29°41' W 091°11'0 0.0
2014-Jul-05 20:33N 29°41' W 091°11'0 0.0
2014-Jul-05 19:33N 29°41' W 091°11'0 0.0
2014-Jul-05 18:33N 29°41' W 091°11'  
Track history (hours):
 
Tides and Currents Weather Stations Pressure Air Temp Water Temp Dewpoint Dewpoint Depression Visibility Wind Speed Wind Dir Waves Ship Positions

Mr. Mag

More information available from US FCC via Universal Licensing System and Coast Guard Vessel Documentation Center.

Last reported at 2014-Jul-15 18:07 UTC. Time now 2014-Aug-22 07:54 UTC.
Position N 29°41' W 091°11'.
Warning: this ship's position is 37 days out of date.

Length 44 m; draft 2.5 m.

Type: Passenger vessel. MMSI: 367397990.

Date/timePositionNaut miles runAvg speedWind from/ knotsBaromVisibWave heightAir tempDewpointWater temp
2014-Jul-15 18:07N 29°41' W 091°11'0 0.0
2014-Jul-15 17:34N 29°41' W 091°11'0 0.1
2014-Jul-15 16:33N 29°41' W 091°11'0 0.0
2014-Jul-15 15:33N 29°41' W 091°11'2 1.9
2014-Jul-15 14:34N 29°42' W 091°13'0 0.3
2014-Jul-15 13:33N 29°42' W 091°13'2 1.6
2014-Jul-15 12:33N 29°41' W 091°11'0 0.0
2014-Jul-15 11:33N 29°41' W 091°11'0 0.0
2014-Jul-15 10:33N 29°41' W 091°11'0 0.0
2014-Jul-15 09:33N 29°41' W 091°11'0 0.0
2014-Jul-15 08:33N 29°41' W 091°11'0 0.0
2014-Jul-15 07:33N 29°41' W 091°11'0 0.0
2014-Jul-15 06:33N 29°41' W 091°11'0 0.0
2014-Jul-15 05:33N 29°41' W 091°11'0 0.0
2014-Jul-15 04:33N 29°41' W 091°11'0 0.0
2014-Jul-15 03:33N 29°41' W 091°11'0 0.0
2014-Jul-15 02:33N 29°41' W 091°11'0 0.0
2014-Jul-15 01:33N 29°41' W 091°11'0 0.0
2014-Jul-15 00:33N 29°41' W 091°11'2 2.3
2014-Jul-14 23:33N 29°40' W 091°14'9 9.0
2014-Jul-14 22:33N 29°32' W 091°17'16 0.9
2014-Jul-14 05:23N 29°18' W 091°27'1315.9
2014-Jul-14 04:33N 29°28' W 091°17'1211.9
2014-Jul-14 03:33N 29°39' W 091°14'3 3.2
2014-Jul-14 02:33N 29°41' W 091°11'0 0.0
2014-Jul-14 01:33N 29°41' W 091°11'0 0.1
2014-Jul-14 00:33N 29°41' W 091°11'0 0.0
2014-Jul-13 23:33N 29°41' W 091°11'2 1.9
2014-Jul-13 22:33N 29°41' W 091°13'8 7.7
2014-Jul-13 21:33N 29°33' W 091°14'13 0.4
2014-Jul-12 15:32N 29°22' W 091°23'1212.7
2014-Jul-12 14:34N 29°33' W 091°15'9 8.8
2014-Jul-12 13:33N 29°41' W 091°13'1 1.1
2014-Jul-12 12:34N 29°41' W 091°11'2 1.6
2014-Jul-12 11:33N 29°42' W 091°13'1 1.0
2014-Jul-12 10:33N 29°41' W 091°12'1 0.7
2014-Jul-12 09:34N 29°41' W 091°11'0 0.0
2014-Jul-12 08:34N 29°41' W 091°11'0 0.1
2014-Jul-12 07:33N 29°41' W 091°11'0 0.0
2014-Jul-12 06:33N 29°41' W 091°11'0 0.0
2014-Jul-12 05:33N 29°41' W 091°11'3 3.0
2014-Jul-12 04:34N 29°40' W 091°14'10 9.8
2014-Jul-12 03:34N 29°30' W 091°16'6 0.5
2014-Jul-11 14:33N 29°25' W 091°20'1212.2
2014-Jul-11 13:33N 29°36' W 091°15'6 5.7
2014-Jul-11 12:34N 29°41' W 091°11'0 0.0
2014-Jul-11 11:33N 29°41' W 091°11'0 0.0
2014-Jul-11 10:33N 29°41' W 091°11'0 0.0
2014-Jul-11 09:34N 29°41' W 091°11'0 0.0
2014-Jul-11 08:33N 29°41' W 091°11'0 0.0
2014-Jul-11 07:33N 29°41' W 091°11'0 0.0
2014-Jul-11 06:34N 29°41' W 091°11'0 0.0
2014-Jul-11 05:33N 29°41' W 091°11'0 0.0
2014-Jul-11 04:34N 29°41' W 091°11'6 6.1
2014-Jul-11 03:34N 29°36' W 091°14'16 1.2
2014-Jul-10 13:24N 29°21' W 091°24'1214.1
2014-Jul-10 12:34N 29°32' W 091°17'1010.5
2014-Jul-10 11:34N 29°41' W 091°12'1 0.6
2014-Jul-10 10:33N 29°41' W 091°11'0 0.0
2014-Jul-10 09:33N 29°41' W 091°11'0 0.0
2014-Jul-10 08:34N 29°41' W 091°11'0 0.0
2014-Jul-10 07:33N 29°41' W 091°11'0 0.0
2014-Jul-10 06:34N 29°41' W 091°11'0 0.0
2014-Jul-10 05:34N 29°41' W 091°11'0 0.0
2014-Jul-10 04:34N 29°41' W 091°11'0 0.0
2014-Jul-10 03:34N 29°41' W 091°11'0 0.0
2014-Jul-10 02:33N 29°41' W 091°11'3 2.6
2014-Jul-10 01:33N 29°40' W 091°14'9 9.5
2014-Jul-10 00:33N 29°31' W 091°16'6 0.5
2014-Jul-09 13:09N 29°26' W 091°20'712.1
2014-Jul-09 12:34N 29°32' W 091°17'1010.0
2014-Jul-09 11:33N 29°42' W 091°13'0 0.5
2014-Jul-09 10:33N 29°42' W 091°13'2 1.5
2014-Jul-09 09:33N 29°41' W 091°11'0 0.0
2014-Jul-09 08:33N 29°41' W 091°11'0 0.0
2014-Jul-09 07:33N 29°41' W 091°11'8 7.8
2014-Jul-09 06:34N 29°34' W 091°14'15 0.7
2014-Jul-08 08:12N 29°21' W 091°24'812.6
2014-Jul-08 07:32N 29°27' W 091°18'6 5.7
2014-Jul-08 06:33N 29°33' W 091°16'9 9.1
2014-Jul-08 05:34N 29°41' W 091°13'1 1.2
2014-Jul-08 04:33N 29°41' W 091°11'0 0.0
2014-Jul-08 03:34N 29°41' W 091°11'2 2.3
2014-Jul-08 02:33N 29°40' W 091°14'1110.6
2014-Jul-08 01:33N 29°30' W 091°16'5 0.5
2014-Jul-07 15:33N 29°26' W 091°20'1313.1
2014-Jul-07 14:33N 29°38' W 091°14'4 3.8
2014-Jul-07 13:33N 29°41' W 091°11'0 0.4
2014-Jul-07 12:33N 29°41' W 091°12'8 7.6
2014-Jul-07 11:33N 29°34' W 091°14'6 0.4
2014-Jul-06 20:33N 29°28' W 091°17'1211.6
2014-Jul-06 19:34N 29°40' W 091°14'3 3.0
2014-Jul-06 18:33N 29°41' W 091°11'0 0.0
2014-Jul-06 17:34N 29°41' W 091°11'0 0.0
2014-Jul-06 16:34N 29°41' W 091°11'0 0.0
2014-Jul-06 15:34N 29°41' W 091°11'0 0.0
2014-Jul-06 14:34N 29°41' W 091°11'0 0.0
2014-Jul-06 13:33N 29°41' W 091°11'2 1.6
2014-Jul-06 12:34N 29°42' W 091°13'2 2.3
2014-Jul-06 11:34N 29°40' W 091°14'1110.2
2014-Jul-06 10:30N 29°29' W 091°16'15 1.8
2014-Jul-06 02:19N 29°18' W 091°27'1418.0
2014-Jul-06 01:34N 29°28' W 091°17'1313.1
2014-Jul-06 00:33N 29°41' W 091°13'2 1.5
2014-Jul-05 23:33N 29°41' W 091°11'0 0.0
2014-Jul-05 22:33N 29°41' W 091°11'0 0.0
2014-Jul-05 21:33N 29°41' W 091°11'0 0.0
2014-Jul-05 20:33N 29°41' W 091°11'0 0.0
2014-Jul-05 19:33N 29°41' W 091°11'0 0.0
2014-Jul-05 18:33N 29°41' W 091°11'  

Dump ship's entire track history